Time;durP1;ratioP1;P1;durP2;ratioP2;P2;SDS_P1;SDS_P2;PMS_P1;PMS_P2;Temp;Humidity;BMP_temperature;BMP_pressure;BME280_temperature;BME280_humidity;BME280_pressure;Samples;Min_cycle;Max_cycle;Signal;HPM_P1;HPM_P2
2021/05/06 00:14:54;;;;;;;2.63;1.20;;;;;;;5.72;73.77;98649.84;5068513;28;20423;-81
2021/05/06 00:33:46;;;;;;;2.63;1.08;;;;;;;5.66;73.98;98634.31;5025485;28;20136;-81
2021/05/06 00:36:12;;;;;;;2.90;1.10;;;;;;;5.56;73.31;98628.25;5068740;28;20058;-82
2021/05/06 00:38:44;;;;;;;2.75;1.20;;;;;;;5.54;73.12;98636.50;5070064;28;20041;-81
2021/05/06 00:41:22;;;;;;;3.80;1.20;;;;;;;5.52;72.88;98632.28;5073622;28;20471;-81
2021/05/06 00:44:08;;;;;;;5.95;1.40;;;;;;;5.54;73.78;98636.50;5070151;28;20053;-81
2021/05/06 00:54:58;;;;;;;4.03;1.35;;;;;;;5.47;73.03;98619.28;5070859;28;20086;-81
2021/05/06 00:57:32;;;;;;;3.08;1.27;;;;;;;5.49;72.91;98601.09;5072900;28;20048;-81
2021/05/06 01:02:59;;;;;;;1.20;1.05;;;;;;;5.55;73.84;98611.22;5063857;28;20119;-81
2021/05/06 01:05:29;;;;;;;6.38;1.48;;;;;;;5.53;74.75;98613.25;5071606;28;20088;-80
2021/05/06 01:08:05;;;;;;;5.50;1.38;;;;;;;5.54;73.88;98608.69;5072960;28;20044;-81
2021/05/06 01:10:46;;;;;;;3.28;1.35;;;;;;;5.52;74.03;98606.16;5068200;28;20581;-81
2021/05/06 01:13:16;;;;;;;2.60;1.55;;;;;;;5.52;73.52;98603.44;5071152;28;20048;-81
2021/05/06 01:15:44;;;;;;;1.85;1.17;;;;;;;5.50;72.95;98605.47;5061601;28;20049;-81
2021/05/06 01:18:10;;;;;;;3.13;1.20;;;;;;;5.60;73.76;98608.88;5064324;28;20049;-81
2021/05/06 01:20:40;;;;;;;4.00;1.65;;;;;;;5.53;72.38;98601.63;5072188;28;20110;-80
2021/05/06 01:23:07;;;;;;;2.22;1.42;;;;;;;5.56;73.44;98609.38;5073032;28;20056;-80
2021/05/06 01:25:33;;;;;;;2.00;1.30;;;;;;;5.55;74.06;98604.97;5070666;28;20087;-80
2021/05/06 01:28:03;;;;;;;1.15;1.05;;;;;;;5.53;72.28;98602.44;5052687;28;20495;-81
2021/05/06 01:30:34;;;;;;;;;;;;;;;5.61;73.56;98604.31;5038911;28;20053;-81
2021/05/06 01:33:04;;;;;;;1.10;1.00;;;;;;;5.56;72.71;98602.13;5062762;28;19928;-81
2021/05/06 01:35:35;;;;;;;3.67;1.45;;;;;;;5.41;72.83;98585.75;5054685;28;20496;-81
2021/05/06 01:38:16;;;;;;;5.68;1.13;;;;;;;5.44;72.42;98601.59;5071346;28;20156;-81
2021/05/06 01:41:02;;;;;;;11.38;1.40;;;;;;;5.38;72.80;98593.34;5072782;28;20052;-81
2021/05/06 01:43:40;;;;;;;2.92;1.27;;;;;;;5.54;72.66;98598.75;5071805;28;20048;-81
2021/05/06 01:49:20;;;;;;;1.88;1.20;;;;;;;5.52;72.25;98595.38;5056418;28;20057;-81
2021/05/06 02:00:05;;;;;;;3.13;1.50;;;;;;;5.46;72.71;98582.56;5070432;28;20449;-81
2021/05/06 02:02:31;;;;;;;1.35;1.08;;;;;;;5.45;72.59;98584.41;5072576;28;20049;-81
2021/05/06 02:04:57;;;;;;;3.00;1.25;;;;;;;5.43;72.98;98578.31;5070700;28;20059;-80
2021/05/06 02:07:23;;;;;;;5.38;1.50;;;;;;;5.45;72.26;98578.16;5071718;28;20101;-81
2021/05/06 02:09:51;;;;;;;2.00;1.38;;;;;;;5.49;72.57;98571.44;5071698;28;20056;-80
2021/05/06 02:12:18;;;;;;;2.78;1.50;;;;;;;5.46;72.72;98566.38;5070015;28;20408;-80
2021/05/06 02:14:50;;;;;;;2.28;1.92;;;;;;;5.40;72.92;98567.03;5070395;28;20131;-81
2021/05/06 02:17:20;;;;;;;4.32;1.50;;;;;;;5.50;72.10;98573.13;5071953;28;20064;-81
2021/05/06 02:19:48;;;;;;;2.23;1.43;;;;;;;5.47;72.33;98568.91;5071364;28;20048;-81
2021/05/06 02:22:15;;;;;;;5.53;1.83;;;;;;;5.55;72.12;98565.38;5051530;28;20045;-81
2021/05/06 02:24:42;;;;;;;2.28;1.55;;;;;;;5.49;72.02;98568.75;5053461;28;20085;-81
2021/05/06 02:27:10;;;;;;;2.83;1.42;;;;;;;5.47;71.68;98562.69;5071581;28;20412;-81
2021/05/06 02:29:36;;;;;;;1.70;1.30;;;;;;;5.48;71.53;98554.41;5071760;28;20543;-81
2021/05/06 02:32:03;;;;;;;5.40;1.23;;;;;;;5.52;71.39;98549.53;5070818;28;20048;-81
2021/05/06 02:34:29;;;;;;;2.22;1.10;;;;;;;5.50;71.43;98544.31;5071007;28;20063;-81
2021/05/06 02:36:55;;;;;;;2.25;1.80;;;;;;;5.46;71.29;98556.44;5071265;28;20053;-80
2021/05/06 02:39:21;;;;;;;4.43;1.55;;;;;;;5.45;70.89;98554.75;5070965;28;20048;-80
2021/05/06 02:41:48;;;;;;;5.90;1.30;;;;;;;5.45;70.40;98553.91;5061392;28;20052;-80
2021/05/06 02:44:15;;;;;;;3.03;1.38;;;;;;;5.46;70.54;98547.50;5070446;28;20086;-80
2021/05/06 02:46:41;;;;;;;4.88;1.42;;;;;;;5.50;70.78;98546.16;5071093;28;20044;-81
2021/05/06 02:49:08;;;;;;;2.60;0.95;;;;;;;5.45;70.86;98543.13;5071266;28;20056;-81
2021/05/06 02:51:39;;;;;;;2.65;1.20;;;;;;;5.50;71.23;98547.00;5071702;28;20060;-81
2021/05/06 02:54:05;;;;;;;3.42;1.27;;;;;;;5.41;71.51;98541.78;5070099;28;20131;-80
2021/05/06 02:56:36;;;;;;;2.88;1.73;;;;;;;5.42;71.42;98557.78;5069302;28;20060;-81
2021/05/06 02:59:19;;;;;;;1.40;1.20;;;;;;;5.42;71.60;98547.00;5067070;28;20055;-81
2021/05/06 03:04:30;;;;;;;5.00;1.25;;;;;;;5.36;70.79;98531.50;5069358;28;20079;-81
2021/05/06 03:06:59;;;;;;;2.00;1.65;;;;;;;5.37;71.19;98522.38;5070546;28;20064;-81
2021/05/06 03:09:37;;;;;;;3.08;1.65;;;;;;;5.28;71.56;98524.25;5070728;28;20067;-81
2021/05/06 03:12:16;;;;;;;1.38;1.17;;;;;;;5.36;71.57;98515.34;5068961;28;20049;-81
2021/05/06 03:14:58;;;;;;;4.82;1.40;;;;;;;5.42;71.06;98511.09;5063383;28;20048;-80
2021/05/06 03:23:08;;;;;;;1.40;1.15;;;;;;;5.39;69.73;98509.59;4989407;28;20122;-81
2021/05/06 03:25:34;;;;;;;6.90;1.90;;;;;;;5.42;68.99;98498.47;5061349;28;20068;-82
2021/05/06 03:28:04;;;;;;;6.10;1.55;;;;;;;5.53;67.89;98504.56;5070353;28;20296;-81
2021/05/06 03:44:43;;;;;;;4.72;1.60;;;;;;;5.54;69.64;98509.78;5069455;28;20078;-86
2021/05/06 04:17:55;;;;;;;6.43;2.17;;;;;;;5.53;71.36;98512.66;5069758;28;20048;-84
2021/05/06 04:26:04;;;;;;;4.65;1.63;;;;;;;5.56;72.10;98525.78;5073995;28;20613;-85
2021/05/06 04:37:06;;;;;;;3.28;1.65;;;;;;;5.57;73.52;98506.75;5064896;28;20043;-85
2021/05/06 04:42:40;;;;;;;2.25;1.30;;;;;;;5.60;74.03;98510.94;5071533;28;20080;-84
2021/05/06 04:45:52;;;;;;;4.10;1.55;;;;;;;5.65;73.14;98500.50;5066865;28;20072;-85
2021/05/06 04:56:50;;;;;;;2.92;1.52;;;;;;;5.72;74.22;98504.22;5050083;28;20158;-85
2021/05/06 05:04:56;;;;;;;5.30;1.85;;;;;;;5.94;72.40;98499.09;5072604;28;20186;-85
2021/05/06 05:07:25;;;;;;;6.70;1.40;;;;;;;5.96;71.71;98499.78;5073833;28;20059;-85
2021/05/06 05:12:51;;;;;;;2.35;1.38;;;;;;;6.13;71.29;98506.84;5063330;28;20139;-84
2021/05/06 05:18:18;;;;;;;6.25;1.45;;;;;;;6.22;71.34;98496.88;5071229;28;20109;-84
2021/05/06 05:20:48;;;;;;;;;;;;;;;6.19;72.44;98494.53;5065849;28;20496;-84
2021/05/06 05:23:33;;;;;;;3.85;1.52;;;;;;;6.15;71.44;98477.81;5073771;28;19943;-84
2021/05/06 05:26:04;;;;;;;2.88;1.55;;;;;;;6.30;71.38;98488.75;5071321;28;20045;-84
2021/05/06 05:28:31;;;;;;;2.67;1.48;;;;;;;6.75;68.93;98472.03;5073392;28;20048;-84
2021/05/06 05:31:10;;;;;;;1.65;1.50;;;;;;;7.32;68.14;98468.94;5067108;28;20052;-84
2021/05/06 05:34:04;;;;;;;5.28;1.48;;;;;;;8.05;65.84;98476.53;5073831;28;20048;-84
2021/05/06 05:36:32;;;;;;;3.00;1.60;;;;;;;7.98;66.16;98469.16;5073078;28;20456;-83
2021/05/06 05:39:08;;;;;;;5.10;1.40;;;;;;;7.73;66.99;98457.75;5073234;28;20171;-83
2021/05/06 05:42:10;;;;;;;3.45;1.33;;;;;;;7.21;67.31;98459.38;5072626;28;20059;-84
2021/05/06 05:55:36;;;;;;;3.40;1.80;;;;;;;6.95;70.95;98469.72;5070642;28;20113;-85
2021/05/06 05:58:03;;;;;;;3.58;1.60;;;;;;;6.86;70.44;98448.13;5069848;28;20090;-84
2021/05/06 06:00:32;;;;;;;4.32;1.70;;;;;;;6.76;70.91;98450.25;5072129;28;20041;-85
2021/05/06 06:03:01;;;;;;;2.90;1.65;;;;;;;6.91;70.55;98469.22;5058374;28;20049;-84
2021/05/06 06:05:30;;;;;;;6.35;1.70;;;;;;;6.90;72.21;98460.25;5072184;28;20093;-84
2021/05/06 06:07:58;;;;;;;3.50;1.83;;;;;;;6.71;72.56;98442.66;5071827;28;20072;-85
2021/05/06 06:10:38;;;;;;;7.32;2.08;;;;;;;6.84;72.23;98462.84;5064882;28;20059;-86
2021/05/06 06:16:22;;;;;;;3.55;1.98;;;;;;;6.70;72.45;98457.19;5017893;28;20306;-85
2021/05/06 06:18:52;;;;;;;2.08;1.73;;;;;;;6.62;71.37;98446.41;5070166;28;20053;-85
2021/05/06 06:21:22;;;;;;;2.83;1.83;;;;;;;6.71;72.61;98450.78;5070632;28;20131;-84
2021/05/06 06:23:49;;;;;;;2.70;1.77;;;;;;;6.79;73.10;98473.34;5072864;28;20083;-84
2021/05/06 06:26:16;;;;;;;2.38;1.75;;;;;;;6.78;73.89;98475.19;5070363;28;20147;-85
2021/05/06 06:28:43;;;;;;;4.10;2.20;;;;;;;6.81;73.85;98474.00;5072656;28;20443;-84
2021/05/06 06:31:16;;;;;;;2.20;1.92;;;;;;;6.69;73.41;98457.38;5071252;28;20636;-84
2021/05/06 06:33:42;;;;;;;3.30;1.80;;;;;;;6.66;73.85;98442.34;5073336;28;20751;-84
2021/05/06 06:36:09;;;;;;;3.83;1.70;;;;;;;6.69;73.38;98444.69;5072364;28;20110;-83
2021/05/06 06:38:36;;;;;;;3.95;2.15;;;;;;;6.68;73.79;98440.28;5065396;28;20076;-84
2021/05/06 06:41:04;;;;;;;5.30;2.03;;;;;;;6.75;73.67;98447.72;5055884;28;20059;-84
2021/05/06 06:43:30;;;;;;;4.50;2.13;;;;;;;6.77;74.05;98446.50;5071117;28;20060;-83
2021/05/06 06:45:57;;;;;;;6.53;2.25;;;;;;;6.85;73.76;98453.69;5071123;28;20079;-84
2021/05/06 06:48:25;;;;;;;5.25;2.38;;;;;;;6.73;74.49;98432.50;5071276;28;20048;-84
2021/05/06 06:50:54;;;;;;;2.92;1.90;;;;;;;6.80;74.01;98438.03;5061778;28;20266;-84
2021/05/06 06:53:20;;;;;;;7.17;2.33;;;;;;;6.80;75.32;98429.94;5069108;28;20137;-84
2021/05/06 06:55:47;;;;;;;3.35;2.05;;;;;;;6.98;75.20;98442.31;5070402;28;20044;-84
2021/05/06 06:58:16;;;;;;;4.07;2.42;;;;;;;6.88;75.80;98427.19;5071038;28;20076;-85
2021/05/06 07:00:44;;;;;;;3.33;2.08;;;;;;;6.85;75.14;98421.28;5070017;28;20064;-84
2021/05/06 07:03:10;;;;;;;4.70;1.90;;;;;;;6.95;75.74;98412.97;5071068;28;20040;-84
2021/05/06 07:05:38;;;;;;;4.75;2.17;;;;;;;6.90;75.48;98416.19;5070030;28;20048;-84
2021/05/06 07:08:15;;;;;;;5.25;2.30;;;;;;;6.95;76.08;98419.19;5065755;28;20055;-84
2021/05/06 07:10:42;;;;;;;4.43;2.20;;;;;;;6.88;75.83;98423.63;5064096;28;20056;-85
2021/05/06 07:13:09;;;;;;;5.22;2.33;;;;;;;6.82;77.26;98416.25;5069655;28;20052;-85
2021/05/06 07:15:35;;;;;;;3.35;2.22;;;;;;;6.87;78.41;98413.84;5069779;28;20484;-85
2021/05/06 07:18:28;;;;;;;5.65;2.40;;;;;;;6.90;77.92;98397.28;5070906;28;20480;-85
2021/05/06 07:20:59;;;;;;;6.88;2.80;;;;;;;6.99;77.49;98422.41;5070414;28;20049;-85
2021/05/06 07:23:36;;;;;;;5.72;2.55;;;;;;;6.85;77.83;98402.38;5060000;28;20053;-85
2021/05/06 07:26:06;;;;;;;8.02;2.70;;;;;;;6.98;78.01;98418.00;5068806;28;20048;-85
2021/05/06 07:28:44;;;;;;;3.65;2.38;;;;;;;6.97;78.63;98414.47;5070624;28;20048;-85
2021/05/06 07:31:15;;;;;;;11.25;2.67;;;;;;;7.13;79.42;98423.47;5071096;28;20483;-85
2021/05/06 07:33:43;;;;;;;7.80;3.30;;;;;;;7.17;77.98;98420.22;5070314;28;20564;-85
2021/05/06 07:36:11;;;;;;;4.32;2.05;;;;;;;7.06;77.87;98405.28;5070236;28;20083;-85
2021/05/06 07:38:38;;;;;;;11.30;2.65;;;;;;;6.97;78.96;98419.88;5051024;28;20098;-84
2021/05/06 07:41:05;;;;;;;4.05;2.40;;;;;;;7.09;78.69;98417.56;5068896;28;20037;-84
2021/05/06 07:43:31;;;;;;;5.07;2.20;;;;;;;7.08;79.26;98415.91;5070969;28;20288;-84
2021/05/06 07:45:58;;;;;;;5.75;2.33;;;;;;;6.97;77.75;98413.59;5069361;28;20063;-84
2021/05/06 07:48:25;;;;;;;5.85;2.42;;;;;;;7.20;77.77;98422.56;5070486;28;20051;-84
2021/05/06 07:51:00;;;;;;;4.75;2.40;;;;;;;7.06;77.56;98426.91;5069999;28;20059;-84
2021/05/06 07:53:35;;;;;;;11.70;2.45;;;;;;;7.00;77.51;98413.25;5051167;28;20049;-84
2021/05/06 07:56:01;;;;;;;7.22;2.20;;;;;;;7.05;79.28;98406.28;5064959;28;20094;-84
2021/05/06 07:58:29;;;;;;;6.25;2.28;;;;;;;7.15;77.33;98411.47;5069526;28;20045;-84
2021/05/06 08:01:04;;;;;;;5.95;2.35;;;;;;;7.25;77.44;98422.84;5069903;28;20634;-84
2021/05/06 08:03:50;;;;;;;5.97;2.63;;;;;;;7.20;77.48;98424.44;5064278;28;20069;-84
2021/05/06 08:06:28;;;;;;;5.03;2.38;;;;;;;7.19;76.50;98398.41;5069684;28;20059;-85
2021/05/06 08:09:32;;;;;;;7.05;2.20;;;;;;;7.14;74.80;98406.22;5063532;28;20558;-86
2021/05/06 08:12:12;;;;;;;5.82;2.13;;;;;;;7.23;76.22;98419.50;5040230;28;20055;-86
2021/05/06 08:14:38;;;;;;;8.05;2.40;;;;;;;7.18;76.29;98408.38;5068042;28;20110;-85
2021/05/06 08:17:05;;;;;;;5.68;2.03;;;;;;;7.22;74.75;98416.97;5071052;28;20150;-85
2021/05/06 08:19:35;;;;;;;3.85;1.95;;;;;;;7.21;75.07;98420.69;5070044;28;20412;-85
2021/05/06 08:22:01;;;;;;;;;;;;;;;7.35;74.60;98410.97;5070894;28;20058;-84
2021/05/06 08:24:31;;;;;;;4.22;1.67;;;;;;;7.24;74.10;98410.38;5069568;28;20327;-85
2021/05/06 08:26:58;;;;;;;6.45;2.08;;;;;;;7.29;74.00;98406.25;5070543;28;20569;-84
2021/05/06 08:29:24;;;;;;;4.90;1.73;;;;;;;7.38;74.82;98400.59;5068479;28;20036;-84
2021/05/06 08:31:51;;;;;;;3.53;1.88;;;;;;;7.60;73.68;98408.84;5070344;28;20392;-85
2021/05/06 08:34:17;;;;;;;4.68;1.60;;;;;;;7.58;73.04;98416.31;5068333;28;20545;-85
2021/05/06 08:36:44;;;;;;;4.53;1.65;;;;;;;7.50;72.88;98410.97;5070342;28;20051;-85
2021/05/06 08:39:10;;;;;;;6.32;2.28;;;;;;;7.45;72.71;98395.28;5068884;28;20044;-84
2021/05/06 08:41:40;;;;;;;3.88;1.58;;;;;;;7.44;70.01;98383.63;5068635;28;20099;-85
2021/05/06 08:44:09;;;;;;;10.75;2.10;;;;;;;7.62;70.89;98398.69;5068998;28;20397;-84
2021/05/06 08:46:45;;;;;;;4.43;1.88;;;;;;;7.55;70.82;98381.50;5055558;28;20064;-85
2021/05/06 08:49:11;;;;;;;3.72;1.60;;;;;;;7.67;70.63;98396.25;5051744;28;20132;-84
2021/05/06 08:51:38;;;;;;;2.63;1.48;;;;;;;7.73;70.96;98379.28;5069550;28;20076;-84
2021/05/06 08:54:05;;;;;;;3.45;1.73;;;;;;;7.77;70.62;98393.28;5070176;28;20495;-84
2021/05/06 08:56:33;;;;;;;5.20;1.75;;;;;;;7.69;72.00;98387.97;5063638;28;20060;-85
2021/05/06 08:59:00;;;;;;;7.85;1.63;;;;;;;7.81;71.35;98408.13;5070086;28;20045;-85
2021/05/06 09:01:26;;;;;;;2.78;1.40;;;;;;;7.87;69.38;98409.25;5071184;28;20411;-86
2021/05/06 09:03:53;;;;;;;8.48;2.42;;;;;;;7.91;70.60;98403.28;5072689;28;20102;-85
2021/05/06 09:06:20;;;;;;;8.15;2.65;;;;;;;7.92;69.93;98412.25;5072274;28;20044;-83
2021/05/06 09:08:51;;;;;;;6.15;2.72;;;;;;;7.82;70.39;98398.97;5072020;28;20295;-85
2021/05/06 09:11:28;;;;;;;6.70;3.00;;;;;;;7.93;72.09;98412.06;5072711;28;20052;-84
2021/05/06 09:14:02;;;;;;;4.25;2.13;;;;;;;7.87;69.00;98409.25;5068626;28;20056;-84
2021/05/06 09:16:47;;;;;;;6.22;2.03;;;;;;;7.75;69.57;98390.78;5053524;28;20458;-84
2021/05/06 09:22:10;;;;;;;6.00;1.50;;;;;;;8.01;69.06;98386.75;5049905;28;20052;-85
2021/05/06 09:24:37;;;;;;;4.60;1.65;;;;;;;8.04;69.35;98389.09;5069820;28;20506;-85
2021/05/06 09:27:05;;;;;;;6.75;2.33;;;;;;;8.09;69.79;98383.94;5073559;28;20048;-85
2021/05/06 09:29:35;;;;;;;7.78;1.85;;;;;;;8.20;67.73;98389.91;5073370;28;20266;-84
2021/05/06 09:32:18;;;;;;;6.13;2.20;;;;;;;8.12;68.69;98383.56;5072967;28;20076;-85
2021/05/06 09:34:45;;;;;;;5.65;1.60;;;;;;;8.29;68.83;98388.78;5072515;28;20102;-84
2021/05/06 09:37:21;;;;;;;7.18;1.88;;;;;;;8.26;69.46;98387.28;5071939;28;20140;-84
2021/05/06 09:39:57;;;;;;;8.00;1.88;;;;;;;8.18;69.14;98383.84;5071296;28;20504;-84
2021/05/06 09:42:43;;;;;;;2.65;1.83;;;;;;;8.29;68.60;98381.47;5072129;28;20052;-84
2021/05/06 09:45:32;;;;;;;4.43;1.60;;;;;;;8.34;68.57;98380.94;5072010;28;20049;-84
2021/05/06 09:48:13;;;;;;;6.47;1.63;;;;;;;8.38;67.30;98384.94;5047958;28;20465;-84
2021/05/06 09:50:43;;;;;;;6.10;1.85;;;;;;;8.37;67.95;98382.41;5066849;28;20055;-84
2021/05/06 09:53:12;;;;;;;7.82;1.60;;;;;;;8.41;67.86;98386.41;5064696;28;20049;-84
2021/05/06 09:55:39;;;;;;;2.53;1.55;;;;;;;8.21;67.94;98365.34;5059933;28;20053;-84
2021/05/06 09:58:19;;;;;;;4.15;1.75;;;;;;;8.39;68.22;98392.03;5072276;28;20048;-84
2021/05/06 10:00:48;;;;;;;6.68;1.73;;;;;;;8.36;66.99;98384.28;5056346;28;20048;-84
2021/05/06 10:03:21;;;;;;;2.60;1.77;;;;;;;8.50;68.26;98378.00;5074227;28;20047;-84
2021/05/06 10:05:50;;;;;;;4.68;1.88;;;;;;;8.47;67.49;98362.13;5052771;28;20052;-84
2021/05/06 10:08:17;;;;;;;3.75;1.40;;;;;;;8.49;67.37;98372.78;5054078;28;20394;-84
2021/05/06 10:10:46;;;;;;;7.90;1.92;;;;;;;8.44;67.36;98358.97;5072067;28;20056;-84
2021/05/06 10:13:13;;;;;;;8.63;1.98;;;;;;;8.55;67.18;98363.06;5071428;28;20045;-84
2021/05/06 10:15:42;;;;;;;3.88;1.55;;;;;;;8.60;66.93;98356.03;5062703;28;20049;-85
2021/05/06 10:18:14;;;;;;;3.95;1.80;;;;;;;8.74;68.13;98356.19;5061915;28;20053;-84
2021/05/06 10:20:40;;;;;;;7.45;2.50;;;;;;;8.76;67.78;98346.84;5071759;28;20128;-84
2021/05/06 10:23:13;;;;;;;2.78;1.73;;;;;;;8.79;66.16;98348.31;5072119;28;20442;-84
2021/05/06 10:25:43;;;;;;;7.70;1.95;;;;;;;8.92;66.15;98364.69;5070831;28;20068;-84
2021/05/06 10:28:22;;;;;;;9.43;1.92;;;;;;;8.81;67.58;98344.38;5071565;28;20097;-84
2021/05/06 10:30:49;;;;;;;3.85;1.90;;;;;;;8.81;67.23;98352.50;5053836;28;20063;-84
2021/05/06 10:33:48;;;;;;;4.28;1.42;;;;;;;8.77;67.00;98339.53;5060877;28;20515;-84
2021/05/06 10:36:20;;;;;;;7.53;2.80;;;;;;;8.76;66.55;98340.56;5070295;28;20138;-84
2021/05/06 10:38:47;;;;;;;9.77;1.88;;;;;;;8.78;67.22;98342.06;5072267;28;20076;-84
2021/05/06 10:41:28;;;;;;;10.82;2.35;;;;;;;8.62;66.33;98328.75;5069223;28;20109;-84
2021/05/06 10:43:56;;;;;;;6.60;1.63;;;;;;;8.70;65.60;98330.50;5071449;28;20044;-83
2021/05/06 10:46:56;;;;;;;11.77;2.40;;;;;;;8.75;66.25;98331.59;5070038;28;20354;-84
2021/05/06 10:49:24;;;;;;;7.87;2.30;;;;;;;8.85;68.00;98331.25;5067717;28;20097;-84
2021/05/06 10:52:00;;;;;;;10.77;2.30;;;;;;;8.73;65.93;98301.16;5070825;28;20056;-84
2021/05/06 10:54:28;;;;;;;7.80;2.58;;;;;;;8.80;65.52;98321.00;5071093;28;20058;-84
2021/05/06 10:56:58;;;;;;;7.97;2.05;;;;;;;8.74;66.43;98302.81;5070343;28;20052;-83
2021/05/06 10:59:25;;;;;;;;;;;;;;;8.76;67.01;98311.59;5071468;28;20052;-84
2021/05/06 11:01:51;;;;;;;6.00;2.10;;;;;;;8.88;68.66;98311.06;5070836;28;19921;-84
2021/05/06 11:04:38;;;;;;;5.05;2.03;;;;;;;8.85;68.12;98304.16;5070290;28;20074;-84
2021/05/06 11:07:30;;;;;;;7.93;1.92;;;;;;;8.96;69.17;98294.69;5070862;28;20302;-84
2021/05/06 11:10:01;;;;;;;6.38;1.83;;;;;;;8.97;67.25;98299.91;5070365;28;20053;-84
2021/05/06 11:12:36;;;;;;;4.25;1.75;;;;;;;9.04;67.09;98313.50;5069974;28;20556;-84
2021/05/06 11:15:43;;;;;;;;;;;;;;;;;;;;;
2021/05/06 11:18:15;;;;;;;3.15;1.58;;;;;;;8.99;68.17;98284.28;5071227;28;20048;-85
2021/05/06 11:20:55;;;;;;;7.20;1.88;;;;;;;9.01;68.77;98293.03;5061580;28;20090;-84
2021/05/06 11:23:35;;;;;;;3.08;1.55;;;;;;;8.97;68.25;98286.34;5060833;28;20056;-85
2021/05/06 11:26:16;;;;;;;4.68;2.00;;;;;;;9.16;68.63;98297.53;5070306;28;20415;-84
2021/05/06 11:29:02;;;;;;;9.10;2.75;;;;;;;9.09;68.95;98275.78;5071327;28;20068;-84
2021/05/06 11:31:49;;;;;;;5.22;1.80;;;;;;;9.25;67.92;98284.69;5070620;28;20052;-84
2021/05/06 11:35:00;;;;;;;11.18;2.20;;;;;;;9.16;67.16;98267.72;5070489;28;20222;-84
2021/05/06 11:38:18;;;;;;;6.80;2.55;;;;;;;9.14;67.45;98276.03;5066778;28;20049;-84
2021/05/06 11:41:08;;;;;;;4.45;1.85;;;;;;;9.06;67.67;98273.47;5067170;28;20059;-84
2021/05/06 11:43:36;;;;;;;7.57;2.50;;;;;;;9.06;68.31;98250.94;5070849;28;20058;-84
2021/05/06 11:46:05;;;;;;;4.63;1.67;;;;;;;8.95;69.14;98242.31;5069555;28;20048;-84
2021/05/06 11:48:45;;;;;;;10.30;2.20;;;;;;;9.04;69.92;98232.16;5070101;28;20515;-84
2021/05/06 11:51:34;;;;;;;7.57;2.17;;;;;;;9.42;69.79;98248.03;5070535;28;20052;-84
2021/05/06 11:54:18;;;;;;;6.68;2.20;;;;;;;9.41;70.21;98238.25;5068814;28;20048;-85
2021/05/06 11:56:51;;;;;;;4.63;1.63;;;;;;;9.54;67.90;98235.63;5056673;28;20045;-84
2021/05/06 11:59:22;;;;;;;7.68;1.65;;;;;;;9.56;69.05;98230.81;5069371;28;20516;-84
2021/05/06 12:01:50;;;;;;;7.40;1.50;;;;;;;9.50;67.50;98247.91;5070476;28;20519;-84
2021/05/06 12:04:23;;;;;;;3.30;1.40;;;;;;;9.32;69.34;98226.72;5069971;28;20494;-83
2021/05/06 12:06:53;;;;;;;3.50;1.27;;;;;;;9.22;70.11;98218.09;5067099;28;20056;-85
2021/05/06 12:09:25;;;;;;;4.45;1.40;;;;;;;9.08;69.43;98225.31;5067460;28;20048;-85
2021/05/06 12:11:52;;;;;;;2.70;0.88;;;;;;;9.11;67.84;98218.66;5055529;28;20090;-85
2021/05/06 12:14:32;;;;;;;2.53;1.27;;;;;;;9.19;69.23;98221.22;5069849;28;20140;-85
2021/05/06 12:17:19;;;;;;;2.10;1.17;;;;;;;8.95;67.29;98214.38;5069410;28;20060;-84
2021/05/06 12:19:47;;;;;;;2.15;0.90;;;;;;;8.95;67.03;98219.81;5070163;28;20051;-85
2021/05/06 12:22:14;;;;;;;1.50;0.95;;;;;;;8.93;67.90;98200.19;5069934;28;20044;-84
2021/05/06 12:24:44;;;;;;;3.47;0.93;;;;;;;8.97;66.85;98191.47;5069990;28;20045;-85
2021/05/06 12:27:45;;;;;;;1.83;0.80;;;;;;;9.10;66.31;98215.09;5065611;28;20045;-85
2021/05/06 12:37:35;;;;;;;1.10;0.80;;;;;;;9.04;67.64;98175.25;5067300;28;20162;-84
2021/05/06 12:40:55;;;;;;;6.32;1.15;;;;;;;9.31;69.42;98167.25;5058127;28;20056;-84
2021/05/06 12:43:27;;;;;;;;;;;;;;;9.42;69.09;98176.69;5071012;28;20056;-85
2021/05/06 12:46:14;;;;;;;3.33;1.20;;;;;;;9.31;67.70;98170.78;5056133;28;19920;-84
2021/05/06 12:48:43;;;;;;;1.55;0.90;;;;;;;9.44;69.20;98169.16;5067091;28;20099;-85
2021/05/06 12:51:12;;;;;;;2.15;1.20;;;;;;;9.23;69.47;98168.25;5073429;28;20303;-84
2021/05/06 12:53:56;;;;;;;1.23;1.13;;;;;;;9.09;70.98;98151.06;5073281;28;20052;-84
2021/05/06 12:56:28;;;;;;;1.80;0.93;;;;;;;9.10;70.84;98158.16;5072397;28;20048;-85
2021/05/06 12:59:37;;;;;;;;;;;;;;;;;;;;;
2021/05/06 13:02:09;;;;;;;2.65;1.10;;;;;;;8.96;74.09;98161.84;5081263;22;20049;-84
2021/05/06 13:04:47;;;;;;;1.52;0.93;;;;;;;9.04;73.73;98154.38;5073441;28;20048;-84
2021/05/06 13:17:55;;;;;;;1.75;1.02;;;;;;;8.76;75.41;98140.03;4934463;28;20127;-83
2021/05/06 13:20:40;;;;;;;1.23;0.90;;;;;;;8.72;76.63;98142.31;4899743;29;20079;-83
2021/05/06 13:23:11;;;;;;;1.42;1.20;;;;;;;8.68;79.07;98132.88;5063097;28;20047;-83
2021/05/06 13:25:47;;;;;;;2.03;1.05;;;;;;;8.76;78.54;98142.72;5082414;28;20502;-83
2021/05/06 13:28:15;;;;;;;2.05;1.00;;;;;;;8.76;77.06;98153.56;5092231;28;20052;-83
2021/05/06 13:30:42;;;;;;;1.83;1.00;;;;;;;8.68;79.24;98135.59;5080050;28;20043;-83
2021/05/06 13:33:18;;;;;;;2.80;1.10;;;;;;;8.80;78.87;98116.91;5091484;28;20062;-83
2021/05/06 13:36:10;;;;;;;1.33;1.00;;;;;;;8.91;79.84;98123.66;5089197;28;20078;-83
2021/05/06 13:38:56;;;;;;;1.20;0.90;;;;;;;8.71;78.68;98112.69;5062516;28;20052;-83
2021/05/06 13:41:24;;;;;;;2.95;0.98;;;;;;;8.78;77.79;98100.03;5084875;28;20091;-82
2021/05/06 13:43:51;;;;;;;3.55;1.08;;;;;;;8.77;80.81;98101.88;5074806;28;20105;-81
2021/05/06 13:46:20;;;;;;;2.97;1.00;;;;;;;8.79;79.39;98101.69;5072447;28;20598;-81
2021/05/06 13:48:47;;;;;;;1.38;0.90;;;;;;;8.73;80.94;98091.66;5077120;28;20078;-81
2021/05/06 13:51:14;;;;;;;5.22;1.33;;;;;;;8.79;80.33;98094.41;5092481;28;20044;-81
2021/05/06 13:53:42;;;;;;;3.20;1.27;;;;;;;8.82;80.83;98085.88;5092837;28;20465;-80
2021/05/06 13:56:09;;;;;;;1.88;1.27;;;;;;;8.78;80.22;98083.78;5081768;28;20138;-80
2021/05/06 13:58:37;;;;;;;2.13;1.08;;;;;;;8.77;81.60;98090.22;5089590;28;20052;-80
2021/05/06 14:01:04;;;;;;;2.33;1.30;;;;;;;8.75;82.27;98076.88;5082714;28;20048;-80
2021/05/06 14:03:30;;;;;;;3.03;1.27;;;;;;;8.69;80.77;98074.97;5091854;28;20500;-80
2021/05/06 14:05:59;;;;;;;4.80;1.50;;;;;;;8.86;81.40;98057.31;5091643;28;20518;-80
2021/05/06 14:08:26;;;;;;;1.20;1.10;;;;;;;8.90;82.39;98048.78;5078292;28;20056;-82
2021/05/06 14:10:55;;;;;;;6.13;2.30;;;;;;;8.99;81.26;98056.56;5089040;28;20052;-82
2021/05/06 14:13:22;;;;;;;2.85;1.63;;;;;;;9.08;80.67;98046.38;5090455;28;20044;-81
2021/05/06 14:15:49;;;;;;;1.35;1.08;;;;;;;8.98;80.65;98025.06;5091174;28;20051;-82
2021/05/06 14:18:15;;;;;;;2.42;1.27;;;;;;;9.04;81.46;98035.09;5090498;28;20964;-82
2021/05/06 14:20:43;;;;;;;4.78;1.80;;;;;;;8.88;81.29;98023.78;5089950;28;20396;-81
2021/05/06 14:23:15;;;;;;;1.60;1.20;;;;;;;8.89;80.50;98020.84;5090796;28;20048;-82
2021/05/06 14:25:42;;;;;;;4.25;1.50;;;;;;;8.94;82.32;98022.97;5091427;28;20057;-82
2021/05/06 14:28:09;;;;;;;2.03;1.55;;;;;;;8.96;82.42;98010.06;5091720;28;20047;-82
2021/05/06 14:30:37;;;;;;;4.10;1.60;;;;;;;8.98;83.03;98011.50;5092097;28;20460;-82
2021/05/06 14:33:06;;;;;;;3.55;1.58;;;;;;;8.95;81.92;98016.50;5091329;28;20055;-82
2021/05/06 14:35:35;;;;;;;2.30;1.52;;;;;;;9.00;82.54;98005.88;5085925;28;20075;-82
2021/05/06 14:38:01;;;;;;;3.13;1.33;;;;;;;9.01;80.94;97991.28;5090628;28;20056;-82
2021/05/06 14:40:28;;;;;;;3.20;1.50;;;;;;;9.01;81.83;97975.84;5090857;28;20048;-82
2021/05/06 14:42:55;;;;;;;2.80;1.58;;;;;;;8.91;81.33;97988.94;5091410;28;20083;-82
2021/05/06 14:45:21;;;;;;;2.28;1.45;;;;;;;8.95;80.79;97984.81;5090979;28;20039;-82
2021/05/06 14:47:47;;;;;;;4.30;1.60;;;;;;;8.73;81.21;97962.44;5091549;28;20045;-82
2021/05/06 14:50:15;;;;;;;3.08;1.15;;;;;;;8.66;82.01;97970.53;5091028;28;20074;-82
2021/05/06 14:52:44;;;;;;;4.32;1.60;;;;;;;8.62;83.48;97968.41;5091745;28;20043;-82
2021/05/06 14:55:15;;;;;;;3.42;1.77;;;;;;;8.68;84.06;97971.16;5089483;28;20563;-81
2021/05/06 14:57:44;;;;;;;3.90;1.90;;;;;;;8.84;81.94;97967.25;5082657;28;20052;-82
2021/05/06 15:00:11;;;;;;;2.72;1.70;;;;;;;8.62;83.27;97968.41;5090549;28;20044;-82
2021/05/06 15:02:38;;;;;;;2.42;1.77;;;;;;;8.50;82.37;97950.03;5090992;28;20081;-83
2021/05/06 15:05:07;;;;;;;3.17;2.28;;;;;;;8.57;83.61;97969.03;5090545;28;20052;-82
2021/05/06 15:07:33;;;;;;;3.35;2.20;;;;;;;8.54;84.78;97960.47;5091369;28;20086;-82
2021/05/06 15:09:59;;;;;;;4.18;2.03;;;;;;;8.62;83.20;97966.53;5091114;28;20105;-82